sensor_id;sensor_type;location;lat;lon;timestamp;pressure;altitude;pressure_sealevel;temperature;humidity
72640;BME280;60683;51.730;8.762;2023-08-07T00:01:50;99703.41;;;13.03;100.00
72640;BME280;60683;51.730;8.762;2023-08-07T00:04:17;99696.63;;;13.00;100.00
72640;BME280;60683;51.730;8.762;2023-08-07T00:06:46;99699.88;;;13.02;100.00
72640;BME280;60683;51.730;8.762;2023-08-07T00:09:12;99696.13;;;13.03;100.00
72640;BME280;60683;51.730;8.762;2023-08-07T00:11:40;99702.59;;;13.02;100.00
72640;BME280;60683;51.730;8.762;2023-08-07T00:14:07;99692.06;;;13.01;100.00
72640;BME280;60683;51.730;8.762;2023-08-07T00:16:34;99695.84;;;13.00;100.00
72640;BME280;60683;51.730;8.762;2023-08-07T00:19:01;99700.44;;;12.99;100.00
72640;BME280;60683;51.730;8.762;2023-08-07T00:21:29;99703.41;;;12.98;100.00
72640;BME280;60683;51.730;8.762;2023-08-07T00:23:57;99694.22;;;12.99;100.00
72640;BME280;60683;51.730;8.762;2023-08-07T00:26:24;99697.44;;;12.96;100.00
72640;BME280;60683;51.730;8.762;2023-08-07T00:28:51;99697.97;;;12.92;100.00
72640;BME280;60683;51.730;8.762;2023-08-07T00:31:19;99697.41;;;12.90;100.00
72640;BME280;60683;51.730;8.762;2023-08-07T00:33:45;99701.72;;;12.91;100.00
72640;BME280;60683;51.730;8.762;2023-08-07T00:36:13;99694.97;;;12.89;100.00
72640;BME280;60683;51.730;8.762;2023-08-07T00:38:39;99689.59;;;12.94;100.00
72640;BME280;60683;51.730;8.762;2023-08-07T00:41:08;99686.66;;;12.96;100.00
72640;BME280;60683;51.730;8.762;2023-08-07T00:43:35;99692.53;;;12.87;100.00
72640;BME280;60683;51.730;8.762;2023-08-07T00:46:02;99699.03;;;12.91;100.00
72640;BME280;60683;51.730;8.762;2023-08-07T00:48:29;99677.16;;;12.88;100.00
72640;BME280;60683;51.730;8.762;2023-08-07T00:50:57;99697.41;;;12.90;100.00
72640;BME280;60683;51.730;8.762;2023-08-07T00:53:24;99700.16;;;12.96;100.00
72640;BME280;60683;51.730;8.762;2023-08-07T00:55:52;99700.66;;;12.92;100.00
72640;BME280;60683;51.730;8.762;2023-08-07T00:58:20;99702.28;;;12.93;100.00
72640;BME280;60683;51.730;8.762;2023-08-07T01:00:48;99696.88;;;12.93;100.00
72640;BME280;60683;51.730;8.762;2023-08-07T01:03:14;99693.63;;;12.91;100.00
72640;BME280;60683;51.730;8.762;2023-08-07T01:05:42;99697.16;;;12.92;100.00
72640;BME280;60683;51.730;8.762;2023-08-07T01:08:10;99698.53;;;12.95;100.00
72640;BME280;60683;51.730;8.762;2023-08-07T01:10:47;99699.03;;;12.91;100.00
72640;BME280;60683;51.730;8.762;2023-08-07T01:13:24;99697.72;;;12.94;100.00
72640;BME280;60683;51.730;8.762;2023-08-07T01:15:56;99703.13;;;12.99;100.00
72640;BME280;60683;51.730;8.762;2023-08-07T01:18:27;99701.22;;;12.95;100.00
72640;BME280;60683;51.730;8.762;2023-08-07T01:20:54;99700.66;;;12.92;100.00
72640;BME280;60683;51.730;8.762;2023-08-07T01:23:22;99696.59;;;12.90;100.00
72640;BME280;60683;51.730;8.762;2023-08-07T01:25:49;99701.72;;;12.91;100.00
72640;BME280;60683;51.730;8.762;2023-08-07T01:28:20;99699.00;;;12.86;100.00
72640;BME280;60683;51.730;8.762;2023-08-07T01:30:55;99701.44;;;12.88;100.00
72640;BME280;60683;51.730;8.762;2023-08-07T01:33:31;99700.88;;;12.86;100.00
72640;BME280;60683;51.730;8.762;2023-08-07T01:36:02;99701.69;;;12.86;100.00
72640;BME280;60683;51.730;8.762;2023-08-07T01:38:33;99698.44;;;12.84;100.00
72640;BME280;60683;51.730;8.762;2023-08-07T01:41:01;99697.88;;;12.82;100.00
72640;BME280;60683;51.730;8.762;2023-08-07T01:43:29;99703.31;;;12.87;100.00
72640;BME280;60683;51.730;8.762;2023-08-07T01:45:58;99696.81;;;12.83;100.00
72640;BME280;60683;51.730;8.762;2023-08-07T01:48:25;99696.28;;;12.86;100.00
72640;BME280;60683;51.730;8.762;2023-08-07T01:50:52;99696.25;;;12.81;100.00
72640;BME280;60683;51.730;8.762;2023-08-07T01:53:20;99698.94;;;12.81;100.00
72640;BME280;60683;51.730;8.762;2023-08-07T01:55:49;99702.22;;;12.83;100.00
72640;BME280;60683;51.730;8.762;2023-08-07T01:58:16;99701.66;;;12.81;100.00
72640;BME280;60683;51.730;8.762;2023-08-07T02:00:43;99697.34;;;12.80;100.00
72640;BME280;60683;51.730;8.762;2023-08-07T02:03:10;99700.59;;;12.82;100.00
72640;BME280;60683;51.730;8.762;2023-08-07T02:05:38;99697.34;;;12.80;100.00
72640;BME280;60683;51.730;8.762;2023-08-07T02:08:05;99701.66;;;12.81;100.00
72640;BME280;60683;51.730;8.762;2023-08-07T02:10:32;99704.09;;;12.83;100.00
72640;BME280;60683;51.730;8.762;2023-08-07T02:13:01;99702.72;;;12.80;100.00
72640;BME280;60683;51.730;8.762;2023-08-07T02:15:29;99703.53;;;12.81;100.00
72640;BME280;60683;51.730;8.762;2023-08-07T02:17:56;99707.34;;;12.85;100.00
72640;BME280;60683;51.730;8.762;2023-08-07T02:20:24;99707.09;;;12.86;100.00
72640;BME280;60683;51.730;8.762;2023-08-07T02:22:51;99719.75;;;12.86;100.00
72640;BME280;60683;51.730;8.762;2023-08-07T02:25:18;99705.97;;;12.82;100.00
72640;BME280;60683;51.730;8.762;2023-08-07T02:27:45;99703.53;;;12.81;100.00
72640;BME280;60683;51.730;8.762;2023-08-07T02:30:14;99702.47;;;12.82;100.00
72640;BME280;60683;51.730;8.762;2023-08-07T02:32:41;99705.97;;;12.82;100.00
72640;BME280;60683;51.730;8.762;2023-08-07T02:35:10;99703.53;;;12.81;100.00
72640;BME280;60683;51.730;8.762;2023-08-07T02:37:37;99707.81;;;12.77;100.00
72640;BME280;60683;51.730;8.762;2023-08-07T02:40:05;99707.31;;;12.80;100.00
72640;BME280;60683;51.730;8.762;2023-08-07T02:42:33;99716.25;;;12.85;100.00
72640;BME280;60683;51.730;8.762;2023-08-07T02:45:00;99708.16;;;12.85;100.00
72640;BME280;60683;51.730;8.762;2023-08-07T02:47:28;99713.81;;;12.84;100.00
72640;BME280;60683;51.730;8.762;2023-08-07T02:49:56;99705.19;;;12.87;100.00
72640;BME280;60683;51.730;8.762;2023-08-07T02:52:22;99711.41;;;12.87;100.00
72640;BME280;60683;51.730;8.762;2023-08-07T02:54:50;99700.38;;;12.89;100.00
72640;BME280;60683;51.730;8.762;2023-08-07T02:57:17;99698.22;;;12.91;100.00
72640;BME280;60683;51.730;8.762;2023-08-07T02:59:44;99702.81;;;12.90;100.00
72640;BME280;60683;51.730;8.762;2023-08-07T03:02:11;99712.56;;;12.97;100.00
72640;BME280;60683;51.730;8.762;2023-08-07T03:04:39;99707.69;;;12.93;100.00
72640;BME280;60683;51.730;8.762;2023-08-07T03:07:06;99709.81;;;12.91;100.00
72640;BME280;60683;51.730;8.762;2023-08-07T03:09:33;99714.72;;;12.95;100.00
72640;BME280;60683;51.730;8.762;2023-08-07T03:12:00;99722.53;;;12.96;100.00
72640;BME280;60683;51.730;8.762;2023-08-07T03:14:29;99718.47;;;12.93;100.00
72640;BME280;60683;51.730;8.762;2023-08-07T03:16:56;99713.63;;;12.96;100.00
72640;BME280;60683;51.730;8.762;2023-08-07T03:19:23;99708.25;;;12.96;100.00
72640;BME280;60683;51.730;8.762;2023-08-07T03:21:52;99711.22;;;12.99;100.00
72640;BME280;60683;51.730;8.762;2023-08-07T03:24:19;99707.72;;;13.04;100.00
72640;BME280;60683;51.730;8.762;2023-08-07T03:26:47;99713.13;;;12.99;100.00
72640;BME280;60683;51.730;8.762;2023-08-07T03:29:14;99705.03;;;12.99;100.00
72640;BME280;60683;51.730;8.762;2023-08-07T03:31:42;99703.66;;;13.01;100.00
72640;BME280;60683;51.730;8.762;2023-08-07T03:34:08;99705.28;;;13.02;100.00
72640;BME280;60683;51.730;8.762;2023-08-07T03:36:36;99709.59;;;12.98;100.00
72640;BME280;60683;51.730;8.762;2023-08-07T03:39:04;99708.53;;;12.99;100.00
72640;BME280;60683;51.730;8.762;2023-08-07T03:41:32;99713.13;;;13.04;100.00
72640;BME280;60683;51.730;8.762;2023-08-07T03:43:59;99715.81;;;12.99;100.00
72640;BME280;60683;51.730;8.762;2023-08-07T03:46:26;99711.78;;;13.06;100.00
72640;BME280;60683;51.730;8.762;2023-08-07T03:48:53;99715.81;;;13.04;100.00
72640;BME280;60683;51.730;8.762;2023-08-07T03:51:20;99715.81;;;13.04;100.00
72640;BME280;60683;51.730;8.762;2023-08-07T03:53:47;99718.00;;;13.07;100.00
72640;BME280;60683;51.730;8.762;2023-08-07T03:56:16;99721.25;;;13.09;100.00
72640;BME280;60683;51.730;8.762;2023-08-07T03:58:42;99715.84;;;13.09;100.00
72640;BME280;60683;51.730;8.762;2023-08-07T04:01:10;99719.91;;;13.11;100.00
72640;BME280;60683;51.730;8.762;2023-08-07T04:03:37;99720.00;;;13.16;100.00
72640;BME280;60683;51.730;8.762;2023-08-07T04:06:04;99711.09;;;13.16;100.00
72640;BME280;60683;51.730;8.762;2023-08-07T04:08:31;99706.72;;;13.15;100.00
72640;BME280;60683;51.730;8.762;2023-08-07T04:10:59;99720.53;;;13.18;100.00
72640;BME280;60683;51.730;8.762;2023-08-07T04:13:28;99722.97;;;13.20;100.00
72640;BME280;60683;51.730;8.762;2023-08-07T04:15:56;99720.53;;;13.18;100.00
72640;BME280;60683;51.730;8.762;2023-08-07T04:18:23;99715.16;;;13.18;100.00
72640;BME280;60683;51.730;8.762;2023-08-07T04:20:52;99716.78;;;13.19;100.00
72640;BME280;60683;51.730;8.762;2023-08-07T04:23:19;99718.41;;;13.20;100.00
72640;BME280;60683;51.730;8.762;2023-08-07T04:25:47;99712.72;;;13.17;100.00
72640;BME280;60683;51.730;8.762;2023-08-07T04:28:14;99712.13;;;13.15;100.00
72640;BME280;60683;51.730;8.762;2023-08-07T04:30:43;99714.81;;;13.15;100.00
72640;BME280;60683;51.730;8.762;2023-08-07T04:33:10;99719.72;;;13.18;100.00
72640;BME280;60683;51.730;8.762;2023-08-07T04:35:38;99726.75;;;13.19;100.00
72640;BME280;60683;51.730;8.762;2023-08-07T04:38:05;99733.22;;;13.18;100.00
72640;BME280;60683;51.730;8.762;2023-08-07T04:40:32;99725.03;;;13.08;100.00
72640;BME280;60683;51.730;8.762;2023-08-07T04:42:59;99732.34;;;13.12;100.00
72640;BME280;60683;51.730;8.762;2023-08-07T04:45:27;99717.47;;;13.10;100.00
72640;BME280;60683;51.730;8.762;2023-08-07T04:47:56;99729.66;;;13.12;100.00
72640;BME280;60683;51.730;8.762;2023-08-07T04:50:23;99731.00;;;13.15;100.00
72640;BME280;60683;51.730;8.762;2023-08-07T04:52:50;99733.41;;;13.11;100.00
72640;BME280;60683;51.730;8.762;2023-08-07T04:55:18;99736.38;;;13.10;100.00
72640;BME280;60683;51.730;8.762;2023-08-07T04:57:45;99748.78;;;13.11;100.00
72640;BME280;60683;51.730;8.762;2023-08-07T05:00:13;99743.91;;;13.08;100.00
72640;BME280;60683;51.730;8.762;2023-08-07T05:02:40;99749.06;;;13.09;100.00
72640;BME280;60683;51.730;8.762;2023-08-07T05:05:08;99748.50;;;13.07;100.00
72640;BME280;60683;51.730;8.762;2023-08-07T05:07:35;99751.19;;;13.07;100.00
72640;BME280;60683;51.730;8.762;2023-08-07T05:10:03;99757.41;;;13.08;100.00
72640;BME280;60683;51.730;8.762;2023-08-07T05:15:38;99754.41;;;13.04;100.00
72640;BME280;60683;51.730;8.762;2023-08-07T05:18:06;99752.53;;;13.05;100.00
72640;BME280;60683;51.730;8.762;2023-08-07T05:20:34;99754.97;;;13.06;100.00
72640;BME280;60683;51.730;8.762;2023-08-07T05:23:01;99753.34;;;13.05;100.00
72640;BME280;60683;51.730;8.762;2023-08-07T05:25:29;99756.84;;;13.06;100.00
72640;BME280;60683;51.730;8.762;2023-08-07T05:28:00;99749.00;;;12.99;100.00
72640;BME280;60683;51.730;8.762;2023-08-07T05:30:27;99763.31;;;13.05;100.00
72640;BME280;60683;51.730;8.762;2023-08-07T05:32:54;99761.69;;;13.04;100.00
72640;BME280;60683;51.730;8.762;2023-08-07T05:35:21;99767.59;;;13.01;100.00
72640;BME280;60683;51.730;8.762;2023-08-07T05:37:49;99778.44;;;13.06;100.00
72640;BME280;60683;51.730;8.762;2023-08-07T05:40:17;99785.22;;;13.08;100.00
72640;BME280;60683;51.730;8.762;2023-08-07T05:42:44;99782.25;;;13.10;100.00
72640;BME280;60683;51.730;8.762;2023-08-07T05:45:11;99786.31;;;13.12;100.00
72640;BME280;60683;51.730;8.762;2023-08-07T05:47:37;99784.94;;;13.10;100.00
72640;BME280;60683;51.730;8.762;2023-08-07T05:50:06;99779.00;;;13.08;100.00
72640;BME280;60683;51.730;8.762;2023-08-07T05:52:33;99785.50;;;13.12;100.00
72640;BME280;60683;51.730;8.762;2023-08-07T05:55:02;99785.56;;;13.17;100.00
72640;BME280;60683;51.730;8.762;2023-08-07T05:57:29;99776.66;;;13.16;100.00
72640;BME280;60683;51.730;8.762;2023-08-07T05:59:56;99794.69;;;13.11;100.00
72640;BME280;60683;51.730;8.762;2023-08-07T06:02:24;99796.31;;;13.12;100.00
72640;BME280;60683;51.730;8.762;2023-08-07T06:04:51;99792.53;;;13.13;100.00
72640;BME280;60683;51.730;8.762;2023-08-07T06:07:18;99789.38;;;13.21;100.00
72640;BME280;60683;51.730;8.762;2023-08-07T06:09:45;99800.22;;;13.26;100.00
72640;BME280;60683;51.730;8.762;2023-08-07T06:12:14;99808.63;;;13.30;100.00
72640;BME280;60683;51.730;8.762;2023-08-07T06:14:42;99808.13;;;13.38;100.00
72640;BME280;60683;51.730;8.762;2023-08-07T06:17:09;99812.50;;;13.44;100.00
72640;BME280;60683;51.730;8.762;2023-08-07T06:19:36;99808.47;;;13.46;100.00
72640;BME280;60683;51.730;8.762;2023-08-07T06:22:04;99824.16;;;13.49;100.00
72640;BME280;60683;51.730;8.762;2023-08-07T06:24:32;99817.69;;;13.50;100.00
72640;BME280;60683;51.730;8.762;2023-08-07T06:26:59;99814.97;;;13.50;100.00
72640;BME280;60683;51.730;8.762;2023-08-07T06:29:28;99813.91;;;13.51;100.00
72640;BME280;60683;51.730;8.762;2023-08-07T06:31:54;99822.78;;;13.52;100.00
72640;BME280;60683;51.730;8.762;2023-08-07T06:34:21;99815.50;;;13.47;100.00
72640;BME280;60683;51.730;8.762;2023-08-07T06:36:49;99821.47;;;13.54;100.00
72640;BME280;60683;51.730;8.762;2023-08-07T06:39:16;99818.75;;;13.54;100.00
72640;BME280;60683;51.730;8.762;2023-08-07T06:41:43;99814.16;;;13.50;100.00
72640;BME280;60683;51.730;8.762;2023-08-07T06:44:10;99821.94;;;13.41;100.00
72640;BME280;60683;51.730;8.762;2023-08-07T06:46:39;99832.75;;;13.41;100.00
72640;BME280;60683;51.730;8.762;2023-08-07T06:49:06;99840.03;;;13.41;100.00
72640;BME280;60683;51.730;8.762;2023-08-07T06:51:33;99832.41;;;13.33;100.00
72640;BME280;60683;51.730;8.762;2023-08-07T06:54:00;99837.75;;;13.28;100.00
72640;BME280;60683;51.730;8.762;2023-08-07T06:56:27;99839.66;;;13.27;100.00
72640;BME280;60683;51.730;8.762;2023-08-07T06:58:54;99843.66;;;13.24;100.00
72640;BME280;60683;51.730;8.762;2023-08-07T07:01:21;99836.91;;;13.22;100.00
72640;BME280;60683;51.730;8.762;2023-08-07T07:03:50;99840.94;;;13.19;100.00
72640;BME280;60683;51.730;8.762;2023-08-07T07:06:18;99835.03;;;13.22;100.00
72640;BME280;60683;51.730;8.762;2023-08-07T07:08:46;99836.94;;;13.27;100.00
72640;BME280;60683;51.730;8.762;2023-08-07T07:11:13;99846.13;;;13.26;100.00
72640;BME280;60683;51.730;8.762;2023-08-07T07:13:40;99851.81;;;13.30;100.00
72640;BME280;60683;51.730;8.762;2023-08-07T07:16:08;99848.03;;;13.31;100.00
72640;BME280;60683;51.730;8.762;2023-08-07T07:18:36;99850.75;;;13.31;100.00
72640;BME280;60683;51.730;8.762;2023-08-07T07:21:05;99850.53;;;13.37;100.00
72640;BME280;60683;51.730;8.762;2023-08-07T07:23:32;99860.78;;;13.35;100.00
72640;BME280;60683;51.730;8.762;2023-08-07T07:25:59;99860.03;;;13.45;100.00
72640;BME280;60683;51.730;8.762;2023-08-07T07:28:27;99848.94;;;13.41;100.00
72640;BME280;60683;51.730;8.762;2023-08-07T07:30:54;99865.19;;;13.46;100.00
72640;BME280;60683;51.730;8.762;2023-08-07T07:33:21;99854.94;;;13.48;100.00
72640;BME280;60683;51.730;8.762;2023-08-07T07:35:48;99859.25;;;13.49;100.00
72640;BME280;60683;51.730;8.762;2023-08-07T07:38:17;99853.88;;;13.54;100.00
72640;BME280;60683;51.730;8.762;2023-08-07T07:40:43;99855.34;;;13.72;100.00
72640;BME280;60683;51.730;8.762;2023-08-07T07:43:11;99848.91;;;13.78;100.00
72640;BME280;60683;51.730;8.762;2023-08-07T07:45:38;99860.88;;;13.93;100.00
72640;BME280;60683;51.730;8.762;2023-08-07T07:48:05;99862.00;;;13.97;100.00
72640;BME280;60683;51.730;8.762;2023-08-07T07:50:33;99869.25;;;13.91;100.00
72640;BME280;60683;51.730;8.762;2023-08-07T07:53:00;99862.44;;;13.83;100.00
72640;BME280;60683;51.730;8.762;2023-08-07T07:55:28;99878.59;;;13.73;100.00
72640;BME280;60683;51.730;8.762;2023-08-07T07:57:56;99873.97;;;13.69;100.00
72640;BME280;60683;51.730;8.762;2023-08-07T08:00:22;99862.59;;;13.67;100.00
72640;BME280;60683;51.730;8.762;2023-08-07T08:02:52;99861.78;;;13.66;100.00
72640;BME280;60683;51.730;8.762;2023-08-07T08:05:20;99881.00;;;13.70;100.00
72640;BME280;60683;51.730;8.762;2023-08-07T08:07:47;99876.69;;;13.74;100.00
72640;BME280;60683;51.730;8.762;2023-08-07T08:10:14;99882.41;;;13.77;100.00
72640;BME280;60683;51.730;8.762;2023-08-07T08:12:42;99884.06;;;13.83;100.00
72640;BME280;60683;51.730;8.762;2023-08-07T08:15:09;99883.84;;;13.90;100.00
72640;BME280;60683;51.730;8.762;2023-08-07T08:17:37;99884.97;;;14.04;100.00
72640;BME280;60683;51.730;8.762;2023-08-07T08:20:05;99881.75;;;14.02;100.00
72640;BME280;60683;51.730;8.762;2023-08-07T08:22:33;99885.72;;;13.89;100.00
72640;BME280;60683;51.730;8.762;2023-08-07T08:25:00;99884.13;;;13.94;100.00
72640;BME280;60683;51.730;8.762;2023-08-07T08:27:27;99880.56;;;13.88;100.00
72640;BME280;60683;51.730;8.762;2023-08-07T08:29:55;99886.56;;;13.95;100.00
72640;BME280;60683;51.730;8.762;2023-08-07T08:32:22;99889.28;;;13.95;100.00
72640;BME280;60683;51.730;8.762;2023-08-07T08:34:49;99898.72;;;13.93;100.00
72640;BME280;60683;51.730;8.762;2023-08-07T08:37:17;99901.09;;;13.84;100.00
72640;BME280;60683;51.730;8.762;2023-08-07T08:39:44;99912.19;;;13.87;100.00
72640;BME280;60683;51.730;8.762;2023-08-07T08:42:11;99901.16;;;13.94;100.00
72640;BME280;60683;51.730;8.762;2023-08-07T08:44:39;99906.59;;;14.04;100.00
72640;BME280;60683;51.730;8.762;2023-08-07T08:47:08;99911.84;;;14.26;100.00
72640;BME280;60683;51.730;8.762;2023-08-07T08:49:39;99903.09;;;14.51;100.00
72640;BME280;60683;51.730;8.762;2023-08-07T08:52:10;99903.09;;;14.51;99.08
72640;BME280;60683;51.730;8.762;2023-08-07T08:54:37;99907.41;;;14.52;99.41
72640;BME280;60683;51.730;8.762;2023-08-07T08:57:06;99917.38;;;14.41;99.46
72640;BME280;60683;51.730;8.762;2023-08-07T08:59:33;99926.63;;;14.50;99.08
72640;BME280;60683;51.730;8.762;2023-08-07T09:02:00;99928.78;;;14.58;99.07
72640;BME280;60683;51.730;8.762;2023-08-07T09:04:29;99931.00;;;14.72;98.87
72640;BME280;60683;51.730;8.762;2023-08-07T09:06:56;99924.81;;;14.81;97.64
72640;BME280;60683;51.730;8.762;2023-08-07T09:09:23;99918.84;;;14.79;96.71
72640;BME280;60683;51.730;8.762;2023-08-07T09:11:51;99915.59;;;14.77;98.15
72640;BME280;60683;51.730;8.762;2023-08-07T09:14:22;99923.50;;;14.89;96.69
72640;BME280;60683;51.730;8.762;2023-08-07T09:16:50;99922.75;;;15.34;96.17
72640;BME280;60683;51.730;8.762;2023-08-07T09:19:17;99922.22;;;15.68;93.58
72640;BME280;60683;51.730;8.762;2023-08-07T09:21:46;99918.16;;;15.85;93.24
72640;BME280;60683;51.730;8.762;2023-08-07T09:24:13;99930.13;;;15.59;94.58
72640;BME280;60683;51.730;8.762;2023-08-07T09:26:42;99929.81;;;15.61;95.27
72640;BME280;60683;51.730;8.762;2023-08-07T09:29:10;99922.75;;;15.80;97.65
72640;BME280;60683;51.730;8.762;2023-08-07T09:31:37;99933.06;;;15.68;93.80
72640;BME280;60683;51.730;8.762;2023-08-07T09:34:04;99943.91;;;15.73;94.69
72640;BME280;60683;51.730;8.762;2023-08-07T09:36:33;99936.03;;;15.97;94.24
72640;BME280;60683;51.730;8.762;2023-08-07T09:39:02;99937.28;;;16.30;93.88
72640;BME280;60683;51.730;8.762;2023-08-07T09:41:30;99932.94;;;16.39;90.65
72640;BME280;60683;51.730;8.762;2023-08-07T09:43:58;99938.03;;;16.55;89.50
72640;BME280;60683;51.730;8.762;2023-08-07T09:46:25;99941.06;;;16.44;88.58
72640;BME280;60683;51.730;8.762;2023-08-07T09:48:57;99938.56;;;16.58;86.53
72640;BME280;60683;51.730;8.762;2023-08-07T09:51:24;99935.00;;;16.67;81.57
72640;BME280;60683;51.730;8.762;2023-08-07T09:53:51;99939.03;;;16.80;84.95
72640;BME280;60683;51.730;8.762;2023-08-07T09:56:20;99946.31;;;16.90;85.41
72640;BME280;60683;51.730;8.762;2023-08-07T09:58:47;99953.81;;;17.08;85.26
72640;BME280;60683;51.730;8.762;2023-08-07T10:01:16;99945.84;;;16.72;83.95
72640;BME280;60683;51.730;8.762;2023-08-07T10:03:43;99952.13;;;16.58;84.56
72640;BME280;60683;51.730;8.762;2023-08-07T10:06:11;99956.19;;;16.65;84.18
72640;BME280;60683;51.730;8.762;2023-08-07T10:08:39;99972.53;;;16.45;85.62
72640;BME280;60683;51.730;8.762;2023-08-07T10:11:08;99997.03;;;15.79;88.84
72640;BME280;60683;51.730;8.762;2023-08-07T10:13:38;100007.25;;;15.31;89.80
72640;BME280;60683;51.730;8.762;2023-08-07T10:16:05;100005.56;;;15.10;93.20
72640;BME280;60683;51.730;8.762;2023-08-07T10:18:32;100007.47;;;15.14;93.30
72640;BME280;60683;51.730;8.762;2023-08-07T10:21:01;100018.63;;;15.33;90.39
72640;BME280;60683;51.730;8.762;2023-08-07T10:23:28;100030.88;;;15.56;89.21
72640;BME280;60683;51.730;8.762;2023-08-07T10:25:56;100020.88;;;15.77;90.19
72640;BME280;60683;51.730;8.762;2023-08-07T10:28:24;100018.97;;;15.57;86.10
72640;BME280;60683;51.730;8.762;2023-08-07T10:30:54;100019.78;;;15.63;83.57
72640;BME280;60683;51.730;8.762;2023-08-07T10:33:22;100020.53;;;15.38;83.54
72640;BME280;60683;51.730;8.762;2023-08-07T10:35:52;100018.66;;;15.43;84.02
72640;BME280;60683;51.730;8.762;2023-08-07T10:38:22;100014.63;;;15.56;84.07
72640;BME280;60683;51.730;8.762;2023-08-07T10:40:58;100002.16;;;15.75;84.41
72640;BME280;60683;51.730;8.762;2023-08-07T10:43:26;100008.97;;;15.98;85.22
72640;BME280;60683;51.730;8.762;2023-08-07T10:46:02;100000.56;;;16.05;84.76
72640;BME280;60683;51.730;8.762;2023-08-07T10:48:29;100001.38;;;16.00;83.20
72640;BME280;60683;51.730;8.762;2023-08-07T10:50:57;99990.25;;;16.07;82.47
72640;BME280;60683;51.730;8.762;2023-08-07T10:53:29;100011.66;;;15.98;83.97
72640;BME280;60683;51.730;8.762;2023-08-07T10:55:57;100012.75;;;15.92;85.42
72640;BME280;60683;51.730;8.762;2023-08-07T10:58:25;100013.56;;;15.87;85.37
72640;BME280;60683;51.730;8.762;2023-08-07T11:01:21;100003.25;;;15.89;85.38
72640;BME280;60683;51.730;8.762;2023-08-07T11:03:52;100008.97;;;16.03;85.72
72640;BME280;60683;51.730;8.762;2023-08-07T11:06:23;100015.44;;;16.12;85.62
72640;BME280;60683;51.730;8.762;2023-08-07T11:08:52;100007.28;;;16.12;85.27
72640;BME280;60683;51.730;8.762;2023-08-07T11:11:20;99994.00;;;16.21;84.42
72640;BME280;60683;51.730;8.762;2023-08-07T11:13:47;100016.19;;;16.53;83.15
72640;BME280;60683;51.730;8.762;2023-08-07T11:16:14;99996.25;;;16.94;78.23
72640;BME280;60683;51.730;8.762;2023-08-07T11:18:43;100005.41;;;17.13;79.79
72640;BME280;60683;51.730;8.762;2023-08-07T11:21:11;100005.44;;;17.03;76.10
72640;BME280;60683;51.730;8.762;2023-08-07T11:23:38;100002.44;;;17.04;75.29
72640;BME280;60683;51.730;8.762;2023-08-07T11:26:06;100018.50;;;17.01;76.17
72640;BME280;60683;51.730;8.762;2023-08-07T11:28:33;100022.91;;;16.81;74.01
72640;BME280;60683;51.730;8.762;2023-08-07T11:31:01;100020.59;;;17.14;73.89
72640;BME280;60683;51.730;8.762;2023-08-07T11:33:28;100005.66;;;17.61;70.93
72640;BME280;60683;51.730;8.762;2023-08-07T11:35:57;100024.66;;;17.66;67.05
72640;BME280;60683;51.730;8.762;2023-08-07T11:38:32;100017.50;;;17.75;66.93
72640;BME280;60683;51.730;8.762;2023-08-07T11:41:00;100016.06;;;17.88;65.63
72640;BME280;60683;51.730;8.762;2023-08-07T11:43:28;100018.59;;;17.74;65.99
72640;BME280;60683;51.730;8.762;2023-08-07T11:45:57;100021.81;;;16.87;69.68
72640;BME280;60683;51.730;8.762;2023-08-07T11:48:24;100042.53;;;15.62;73.97
72640;BME280;60683;51.730;8.762;2023-08-07T11:50:53;100047.31;;;15.29;72.99
72640;BME280;60683;51.730;8.762;2023-08-07T11:53:22;100064.91;;;15.27;72.12
72640;BME280;60683;51.730;8.762;2023-08-07T11:55:53;100079.00;;;15.29;71.12
72640;BME280;60683;51.730;8.762;2023-08-07T11:58:22;100084.13;;;15.20;70.60
72640;BME280;60683;51.730;8.762;2023-08-07T12:00:51;100090.13;;;15.32;69.47
72640;BME280;60683;51.730;8.762;2023-08-07T12:03:28;100097.00;;;15.65;71.35
72640;BME280;60683;51.730;8.762;2023-08-07T12:05:57;100077.16;;;15.44;70.53
72640;BME280;60683;51.730;8.762;2023-08-07T12:08:31;100098.41;;;15.00;71.73
72640;BME280;60683;51.730;8.762;2023-08-07T12:11:00;100090.59;;;15.19;71.22
72640;BME280;60683;51.730;8.762;2023-08-07T12:13:27;100090.09;;;15.27;70.33
72640;BME280;60683;51.730;8.762;2023-08-07T12:15:55;100098.56;;;15.46;71.96
72640;BME280;60683;51.730;8.762;2023-08-07T12:18:22;100092.09;;;15.52;71.86
72640;BME280;60683;51.730;8.762;2023-08-07T12:20:50;100089.41;;;15.62;70.99
72640;BME280;60683;51.730;8.762;2023-08-07T12:23:20;100093.25;;;15.86;71.05
72640;BME280;60683;51.730;8.762;2023-08-07T12:25:49;100091.41;;;16.07;71.23
72640;BME280;60683;51.730;8.762;2023-08-07T12:28:17;100093.81;;;16.24;69.49
72640;BME280;60683;51.730;8.762;2023-08-07T12:30:45;100077.53;;;16.49;68.64
72640;BME280;60683;51.730;8.762;2023-08-07T12:33:13;100078.94;;;17.21;66.29
72640;BME280;60683;51.730;8.762;2023-08-07T12:35:41;100079.06;;;17.56;65.30
72640;BME280;60683;51.730;8.762;2023-08-07T12:38:08;100073.34;;;18.01;62.58
72640;BME280;60683;51.730;8.762;2023-08-07T12:40:36;100069.72;;;18.11;63.06
72640;BME280;60683;51.730;8.762;2023-08-07T12:43:05;100071.63;;;18.39;61.80
72640;BME280;60683;51.730;8.762;2023-08-07T12:45:33;100078.59;;;17.88;62.88
72640;BME280;60683;51.730;8.762;2023-08-07T12:48:00;100065.72;;;17.10;65.14
72640;BME280;60683;51.730;8.762;2023-08-07T12:50:28;100085.09;;;16.73;69.51
72640;BME280;60683;51.730;8.762;2023-08-07T12:52:55;100093.28;;;16.07;74.01
72640;BME280;60683;51.730;8.762;2023-08-07T12:55:22;100088.66;;;15.97;74.84
72640;BME280;60683;51.730;8.762;2023-08-07T12:57:49;100093.25;;;15.81;76.54